Poio, Spain
Current Conditions -  °F | °C
As of 3:30 PM on Monday 20 Oct 2014 (Local Time) from LEVX Reporting Station
Clear Clear  
Wind Chill: 82°   Ceiling: Unl
Heat Index: 85°   Visibility: 6mi
Dew Point: 66°   Wind: 1mph
Humidity: 58%   Direction: NA
Pressure: 30.15"   Gusts: NA
Location:  42.44°N, 8.71°W
Report Text: LEVX 201330Z VRB01KT CAVOK 28/19 Q1021 NOSIG
Loading
Personal Weather Stations






























Interactive Weather Map
Tropical Storm Tracking
New forecast layout! Learn more

10-Day Weather Forecast

Advertisements
Track Severe Weather on mobile